Time;durP1;ratioP1;P1;durP2;ratioP2;P2;SDS_P1;SDS_P2;PMS_P1;PMS_P2;Temp;Humidity;BMP_temperature;BMP_pressure;BME280_temperature;BME280_humidity;BME280_pressure;Samples;Min_cycle;Max_cycle;Signal;HPM_P1;HPM_P2
2022/10/29 00:01:32;;;;;;;1.20;0.77;;;;;;;20.34;52.49;99634.41;5068276;28;20115;-90
2022/10/29 00:03:58;;;;;;;0.60;0.60;;;;;;;20.34;52.74;99630.88;5060892;28;20031;-89
2022/10/29 00:06:23;;;;;;;0.77;0.60;;;;;;;20.35;52.67;99630.63;5068012;28;20037;-89
2022/10/29 00:08:49;;;;;;;0.60;0.60;;;;;;;20.36;52.55;99632.22;5065936;28;20017;-89
2022/10/29 00:11:19;;;;;;;1.00;0.90;;;;;;;20.34;52.58;99633.59;5047379;28;20070;-89
2022/10/29 00:13:45;;;;;;;0.60;0.60;;;;;;;20.34;52.68;99628.16;5068367;28;20512;-90
2022/10/29 00:16:13;;;;;;;0.73;0.60;;;;;;;20.35;52.60;99622.47;5058623;28;20052;-89
2022/10/29 00:18:39;;;;;;;1.13;0.60;;;;;;;20.35;52.48;99611.63;5050003;28;20054;-88
2022/10/29 00:21:06;;;;;;;0.98;0.80;;;;;;;20.32;52.67;99604.00;5047803;28;20048;-89
2022/10/29 00:23:32;;;;;;;1.00;0.70;;;;;;;20.35;52.72;99598.06;5047173;28;20100;-91
2022/10/29 00:25:58;;;;;;;0.70;0.60;;;;;;;20.35;52.77;99592.63;5067380;28;20020;-89
2022/10/29 00:28:24;;;;;;;0.60;0.60;;;;;;;20.37;52.56;99585.03;5059703;28;20452;-90
2022/10/29 00:30:50;;;;;;;0.63;0.60;;;;;;;20.33;52.54;99585.81;5047635;28;20025;-90
2022/10/29 00:33:17;;;;;;;1.05;0.63;;;;;;;20.35;52.66;99581.78;5063760;28;20507;-90
2022/10/29 00:36:03;;;;;;;1.10;0.73;;;;;;;20.36;52.74;99586.09;5048257;28;20081;-90
2022/10/29 00:38:30;;;;;;;0.70;0.70;;;;;;;20.38;52.46;99591.25;5064587;28;20404;-90
2022/10/29 00:40:55;;;;;;;1.05;0.70;;;;;;;20.36;52.74;99590.72;5046325;28;20043;-91
2022/10/29 00:43:22;;;;;;;1.52;0.70;;;;;;;20.37;52.90;99590.44;5049452;28;20492;-90
2022/10/29 00:46:18;;;;;;;0.98;0.60;;;;;;;20.39;52.58;99582.84;5062527;28;20027;-91
2022/10/29 00:48:45;;;;;;;0.80;0.65;;;;;;;20.36;52.50;99580.66;5034297;28;20039;-90
2022/10/29 00:51:12;;;;;;;0.77;0.60;;;;;;;20.36;52.65;99577.94;5033628;28;20051;-90
2022/10/29 00:53:40;;;;;;;0.80;0.60;;;;;;;20.37;52.71;99571.44;5067691;28;20016;-90
2022/10/29 00:56:06;;;;;;;0.40;0.40;;;;;;;20.37;52.82;99573.31;5067618;28;20405;-90
2022/10/29 00:58:31;;;;;;;0.50;0.50;;;;;;;20.37;52.61;99576.88;5061602;28;20082;-90
2022/10/29 01:00:58;;;;;;;0.80;0.47;;;;;;;20.34;52.70;99561.13;5067553;28;20052;-90
2022/10/29 01:03:24;;;;;;;0.65;0.65;;;;;;;20.34;52.92;99549.47;5061690;28;20073;-90
2022/10/29 01:05:49;;;;;;;0.70;0.70;;;;;;;20.38;52.75;99556.78;5047802;28;20119;-89
2022/10/29 01:08:15;;;;;;;0.93;0.50;;;;;;;20.37;52.75;99551.63;5049003;28;20384;-89
2022/10/29 01:11:02;;;;;;;0.60;0.52;;;;;;;20.37;52.89;99546.19;5061541;28;20041;-90
2022/10/29 01:14:12;;;;;;;0.95;0.50;;;;;;;20.39;52.92;99544.03;5067291;28;20082;-89
2022/10/29 01:17:03;;;;;;;0.52;0.52;;;;;;;20.37;52.65;99549.75;5042962;28;20040;-89
2022/10/29 01:19:46;;;;;;;1.20;0.60;;;;;;;20.36;52.98;99550.81;5065686;28;20442;-89
2022/10/29 01:22:21;;;;;;;0.65;0.40;;;;;;;20.38;52.95;99548.63;5064094;28;20028;-89
2022/10/29 01:25:25;;;;;;;0.70;0.70;;;;;;;20.38;52.89;99531.56;5065933;28;20081;-90
2022/10/29 01:28:02;;;;;;;0.50;0.50;;;;;;;20.37;52.73;99547.03;5031288;28;20033;-89
2022/10/29 01:30:33;;;;;;;0.57;0.50;;;;;;;20.37;53.00;99536.16;5033031;28;20029;-89
2022/10/29 01:33:31;;;;;;;0.60;0.50;;;;;;;20.38;52.96;99526.13;5062953;28;20025;-89
2022/10/29 01:36:25;;;;;;;0.60;0.60;;;;;;;20.38;52.72;99523.41;5010861;28;20042;-89
2022/10/29 01:38:58;;;;;;;1.85;0.60;;;;;;;20.36;53.03;99507.41;5061094;28;20470;-89
2022/10/29 01:41:38;;;;;;;0.50;0.43;;;;;;;20.38;52.88;99507.13;5051736;28;20093;-89
2022/10/29 01:44:06;;;;;;;0.52;0.50;;;;;;;20.39;52.78;99511.47;5070565;28;20082;-89
2022/10/29 01:46:56;;;;;;;0.93;0.50;;;;;;;20.38;52.77;99507.94;5064645;28;20024;-90
2022/10/29 01:49:25;;;;;;;0.88;0.70;;;;;;;20.37;52.95;99500.91;5055952;28;20044;-89
2022/10/29 01:51:51;;;;;;;0.95;0.60;;;;;;;20.32;52.89;99484.63;5066120;28;20028;-90
2022/10/29 01:54:16;;;;;;;0.50;0.50;;;;;;;20.38;52.83;99485.41;5053071;28;20078;-89
2022/10/29 01:56:42;;;;;;;0.50;0.50;;;;;;;20.37;52.98;99481.06;5066570;28;20068;-89
2022/10/29 01:59:10;;;;;;;0.50;0.50;;;;;;;20.38;53.12;99478.09;5067306;28;20032;-89
2022/10/29 02:01:49;;;;;;;0.45;0.45;;;;;;;20.37;53.07;99479.19;5070495;28;20017;-90
2022/10/29 02:04:45;;;;;;;0.63;0.60;;;;;;;20.40;52.80;99467.78;5063606;28;20020;-90
2022/10/29 02:07:24;;;;;;;0.55;0.50;;;;;;;20.36;53.07;99469.41;5068066;28;20424;-89
2022/10/29 02:09:55;;;;;;;0.50;0.40;;;;;;;20.35;53.05;99454.22;5065797;28;20055;-89
2022/10/29 02:12:48;;;;;;;0.50;0.50;;;;;;;20.31;53.04;99434.16;5050389;28;20033;-90
2022/10/29 02:15:18;;;;;;;0.52;0.52;;;;;;;20.38;52.85;99444.72;5043921;28;20044;-90
2022/10/29 02:17:44;;;;;;;0.43;0.43;;;;;;;20.32;53.23;99441.22;5051857;28;20070;-90
2022/10/29 02:20:10;;;;;;;0.60;0.50;;;;;;;20.38;53.10;99440.09;5052023;28;20089;-89
2022/10/29 02:22:36;;;;;;;0.40;0.40;;;;;;;20.39;52.94;99441.72;5061544;28;20459;-90
2022/10/29 02:25:01;;;;;;;0.93;0.60;;;;;;;20.38;53.04;99445.53;5069861;28;20159;-89
2022/10/29 02:27:27;;;;;;;1.27;0.50;;;;;;;20.39;53.01;99439.00;5047774;28;20089;-89
2022/10/29 02:29:53;;;;;;;0.52;0.50;;;;;;;20.39;53.00;99432.78;5050878;28;20028;-90
2022/10/29 02:32:18;;;;;;;0.50;0.50;;;;;;;20.40;52.98;99434.41;5068393;28;20291;-89
2022/10/29 02:34:44;;;;;;;0.50;0.50;;;;;;;20.39;52.93;99432.78;5062197;28;20029;-89
2022/10/29 02:37:09;;;;;;;0.75;0.43;;;;;;;20.39;53.17;99421.94;5069482;28;20021;-90
2022/10/29 02:39:35;;;;;;;0.85;0.40;;;;;;;20.38;53.02;99412.97;5066847;28;20115;-89
2022/10/29 02:42:00;;;;;;;0.57;0.50;;;;;;;20.41;52.96;99409.69;5050785;28;20100;-90
2022/10/29 02:44:26;;;;;;;0.40;0.40;;;;;;;20.39;52.98;99408.38;5067864;28;20097;-90
2022/10/29 02:46:52;;;;;;;0.57;0.55;;;;;;;20.36;53.10;99409.72;5063048;28;20446;-89
2022/10/29 02:49:17;;;;;;;0.40;0.40;;;;;;;20.39;53.27;99409.16;5067165;28;20109;-89
2022/10/29 02:51:43;;;;;;;0.60;0.60;;;;;;;20.39;53.12;99411.88;5065232;28;20035;-90
2022/10/29 02:54:08;;;;;;;0.93;0.60;;;;;;;20.40;53.11;99413.53;5068910;28;20113;-89
2022/10/29 02:56:34;;;;;;;0.50;0.50;;;;;;;20.37;53.17;99402.38;5048798;28;20025;-90
2022/10/29 02:59:00;;;;;;;0.80;0.60;;;;;;;20.39;53.21;99406.47;5064971;28;20028;-89
2022/10/29 03:01:25;;;;;;;0.40;0.40;;;;;;;20.39;53.10;99403.75;5051119;28;20044;-89
2022/10/29 03:03:51;;;;;;;0.50;0.50;;;;;;;20.41;53.10;99406.97;5047219;28;20092;-90
2022/10/29 03:06:17;;;;;;;0.43;0.43;;;;;;;20.40;52.86;99399.94;5068214;28;20030;-90
2022/10/29 03:08:43;;;;;;;0.40;0.40;;;;;;;20.31;53.06;99377.16;5047965;28;20028;-89
2022/10/29 03:11:09;;;;;;;0.70;0.55;;;;;;;20.40;53.19;99389.09;5064550;28;20032;-89
2022/10/29 03:13:35;;;;;;;0.52;0.50;;;;;;;20.39;53.19;99386.66;5069018;28;20060;-89
2022/10/29 03:16:00;;;;;;;0.70;0.70;;;;;;;20.40;53.01;99378.25;5064645;28;20482;-89
2022/10/29 03:18:26;;;;;;;0.50;0.50;;;;;;;20.37;53.30;99373.38;5068029;28;20035;-89
2022/10/29 03:20:51;;;;;;;0.98;0.50;;;;;;;20.39;53.26;99376.59;5064899;28;20021;-90
2022/10/29 03:23:17;;;;;;;0.50;0.50;;;;;;;20.42;53.01;99367.91;5065826;28;20029;-90
2022/10/29 03:25:43;;;;;;;0.68;0.50;;;;;;;20.40;53.18;99356.53;5068734;28;20029;-90
2022/10/29 03:28:08;;;;;;;0.80;0.55;;;;;;;20.38;53.32;99357.88;5064858;28;20497;-89
2022/10/29 03:30:34;;;;;;;0.75;0.40;;;;;;;20.40;53.27;99361.97;5067359;28;20037;-90
2022/10/29 03:32:59;;;;;;;0.35;0.35;;;;;;;20.41;53.21;99351.91;5045771;28;20021;-89
2022/10/29 03:35:25;;;;;;;0.88;0.45;;;;;;;20.41;53.10;99346.47;5048720;28;20388;-90
2022/10/29 03:37:51;;;;;;;0.47;0.43;;;;;;;20.33;53.14;99331.56;5050258;28;20765;-89
2022/10/29 03:40:17;;;;;;;0.50;0.50;;;;;;;20.39;53.17;99346.75;5065601;28;20565;-89
2022/10/29 03:42:43;;;;;;;0.40;0.40;;;;;;;20.40;53.22;99345.69;5068520;28;20115;-88
2022/10/29 03:45:09;;;;;;;0.45;0.45;;;;;;;20.39;53.08;99330.47;5063635;28;20108;-89
2022/10/29 03:47:34;;;;;;;0.40;0.40;;;;;;;20.37;53.26;99335.38;5048350;28;20025;-90
2022/10/29 03:50:00;;;;;;;0.50;0.50;;;;;;;20.38;53.40;99334.25;5033880;28;20024;-89
2022/10/29 03:52:26;;;;;;;0.60;0.57;;;;;;;20.40;53.32;99328.56;5046185;28;20028;-89
2022/10/29 03:54:52;;;;;;;0.40;0.40;;;;;;;20.42;53.18;99337.22;5068432;28;20055;-90
2022/10/29 03:57:17;;;;;;;0.50;0.50;;;;;;;20.40;53.24;99323.97;5063174;28;20604;-89
2022/10/29 03:59:43;;;;;;;0.40;0.40;;;;;;;20.40;53.17;99313.13;5065958;28;20032;-89
2022/10/29 04:02:09;;;;;;;0.40;0.40;;;;;;;20.42;53.08;99315.53;5068340;28;20465;-90
2022/10/29 04:04:34;;;;;;;0.90;0.32;;;;;;;20.41;53.16;99305.78;5063557;28;20082;-89
2022/10/29 04:07:00;;;;;;;0.43;0.43;;;;;;;20.35;53.01;99296.88;5068204;28;20036;-89
2022/10/29 04:09:25;;;;;;;0.65;0.63;;;;;;;20.40;53.10;99304.97;5042630;28;20056;-89
2022/10/29 04:11:51;;;;;;;0.50;0.50;;;;;;;20.41;53.22;99297.63;5049267;28;20032;-89
2022/10/29 04:14:17;;;;;;;0.50;0.50;;;;;;;20.41;53.04;99290.31;5067281;28;20032;-90
2022/10/29 04:16:42;;;;;;;0.50;0.50;;;;;;;20.36;52.98;99290.31;5029040;28;20388;-89
2022/10/29 04:19:08;;;;;;;0.30;0.30;;;;;;;20.39;53.28;99283.53;5067915;28;20473;-89
2022/10/29 04:21:33;;;;;;;0.75;0.40;;;;;;;20.39;53.23;99268.06;5062150;28;20028;-89
2022/10/29 04:23:59;;;;;;;0.40;0.40;;;;;;;20.41;53.11;99274.03;5049467;28;20043;-89
2022/10/29 04:26:25;;;;;;;0.70;0.68;;;;;;;20.42;53.04;99275.66;5066922;28;20490;-89
2022/10/29 04:28:50;;;;;;;0.55;0.40;;;;;;;20.40;53.17;99268.88;5063603;28;20111;-89
2022/10/29 04:31:16;;;;;;;0.60;0.60;;;;;;;20.40;53.33;99264.28;5067365;28;20024;-89
2022/10/29 04:33:42;;;;;;;0.50;0.50;;;;;;;20.42;53.24;99272.09;5029974;28;20086;-90
2022/10/29 04:36:07;;;;;;;0.63;0.50;;;;;;;20.41;53.11;99257.72;5048943;28;20095;-89
2022/10/29 04:38:33;;;;;;;0.70;0.60;;;;;;;20.40;53.18;99260.72;5064257;28;20412;-90
2022/10/29 04:40:59;;;;;;;0.65;0.65;;;;;;;20.41;53.31;99257.72;5063118;28;20024;-89
2022/10/29 04:43:25;;;;;;;0.73;0.50;;;;;;;20.40;53.16;99253.41;5066897;28;20021;-90
2022/10/29 04:45:51;;;;;;;0.60;0.40;;;;;;;20.40;53.04;99253.41;5060583;28;20021;-89
2022/10/29 04:48:17;;;;;;;0.50;0.50;;;;;;;20.34;53.28;99238.25;5065247;28;20044;-89
2022/10/29 04:50:43;;;;;;;1.60;0.50;;;;;;;20.41;53.22;99232.50;5047832;28;20380;-89
2022/10/29 04:53:08;;;;;;;0.85;0.47;;;;;;;20.42;53.18;99239.53;5062989;28;20036;-89
2022/10/29 04:55:37;;;;;;;0.60;0.55;;;;;;;20.33;52.91;99217.63;5067459;28;20040;-90
2022/10/29 04:58:06;;;;;;;0.50;0.50;;;;;;;20.41;53.18;99225.19;5042042;28;20062;-90
2022/10/29 05:00:32;;;;;;;0.43;0.43;;;;;;;20.40;53.29;99226.28;5066666;28;20037;-90
2022/10/29 05:02:58;;;;;;;0.50;0.50;;;;;;;20.42;53.13;99215.94;5063596;28;20032;-89
2022/10/29 05:05:23;;;;;;;0.50;0.50;;;;;;;20.42;52.99;99207.81;5063870;28;20107;-90
2022/10/29 05:07:55;;;;;;;0.57;0.57;;;;;;;20.39;53.28;99191.28;5067532;28;20397;-89
2022/10/29 05:10:20;;;;;;;0.68;0.50;;;;;;;20.40;53.26;99180.16;5047478;28;20024;-90
2022/10/29 05:12:46;;;;;;;0.57;0.55;;;;;;;20.41;53.30;99183.66;5070607;28;20178;-89
2022/10/29 05:15:12;;;;;;;0.40;0.40;;;;;;;20.39;53.05;99183.94;5066662;28;20037;-90
2022/10/29 05:17:37;;;;;;;0.50;0.50;;;;;;;20.39;53.34;99175.81;5067881;28;20040;-90
2022/10/29 05:20:03;;;;;;;0.55;0.50;;;;;;;20.40;53.40;99172.00;5071106;28;20023;-89
2022/10/29 05:22:29;;;;;;;0.95;0.43;;;;;;;20.41;53.11;99165.47;5065450;28;20067;-90
2022/10/29 05:24:55;;;;;;;0.77;0.77;;;;;;;20.41;53.21;99164.69;5053202;28;20104;-90
2022/10/29 05:27:20;;;;;;;0.50;0.50;;;;;;;20.38;53.23;99157.91;5065595;28;20056;-89
2022/10/29 05:29:46;;;;;;;2.35;0.55;;;;;;;20.40;53.40;99157.63;5068107;28;20301;-90
2022/10/29 05:32:11;;;;;;;0.45;0.45;;;;;;;20.32;53.40;99141.97;5071027;28;20477;-89
2022/10/29 05:34:37;;;;;;;0.73;0.60;;;;;;;20.38;53.38;99146.25;5066351;28;20103;-90
2022/10/29 05:37:02;;;;;;;0.50;0.50;;;;;;;20.39;53.33;99151.38;5070853;28;20405;-90
2022/10/29 05:39:28;;;;;;;0.40;0.40;;;;;;;20.38;53.24;99136.19;5064982;28;20107;-90
2022/10/29 05:41:53;;;;;;;0.57;0.57;;;;;;;20.37;53.42;99139.19;5068353;28;20041;-89
2022/10/29 05:44:19;;;;;;;0.43;0.43;;;;;;;20.42;53.18;99137.25;5051511;28;20380;-89
2022/10/29 05:46:48;;;;;;;0.93;0.47;;;;;;;20.39;53.37;99129.69;5050612;28;20029;-90
2022/10/29 05:49:13;;;;;;;0.60;0.60;;;;;;;20.31;53.31;99122.13;5070301;28;20077;-89
2022/10/29 05:51:39;;;;;;;0.50;0.50;;;;;;;20.40;53.27;99134.03;5046359;28;20033;-89
2022/10/29 05:54:05;;;;;;;0.45;0.45;;;;;;;20.41;53.24;99119.34;5068569;28;20453;-91
2022/10/29 05:56:30;;;;;;;0.40;0.40;;;;;;;20.39;53.10;99121.53;5033335;28;20120;-89
2022/10/29 05:58:56;;;;;;;0.50;0.50;;;;;;;20.40;53.38;99123.19;5066729;28;20091;-90
2022/10/29 06:01:21;;;;;;;0.70;0.70;;;;;;;20.41;53.24;99113.13;5052324;28;20020;-89
2022/10/29 06:03:47;;;;;;;0.60;0.60;;;;;;;20.41;53.29;99113.91;5046030;28;20029;-90
2022/10/29 06:06:13;;;;;;;0.60;0.60;;;;;;;20.43;53.21;99106.31;5068508;28;20024;-90
2022/10/29 06:08:38;;;;;;;0.60;0.60;;;;;;;20.41;53.37;99103.06;5067307;28;20062;-89
2022/10/29 06:11:06;;;;;;;0.60;0.50;;;;;;;20.40;53.40;99095.22;5067743;28;20157;-90
2022/10/29 06:13:32;;;;;;;0.60;0.50;;;;;;;20.40;53.15;99087.91;5052764;28;20040;-90
2022/10/29 06:15:58;;;;;;;0.50;0.50;;;;;;;20.39;53.23;99088.19;5065426;28;20094;-91
2022/10/29 06:18:27;;;;;;;0.50;0.50;;;;;;;20.39;53.46;99086.28;5050010;28;20041;-90
2022/10/29 06:20:53;;;;;;;0.75;0.60;;;;;;;20.39;53.43;99075.41;5068357;28;20616;-91
2022/10/29 06:23:19;;;;;;;0.50;0.50;;;;;;;20.39;53.23;99072.69;5050229;28;20028;-90
2022/10/29 06:25:44;;;;;;;0.50;0.50;;;;;;;20.38;53.18;99067.56;5049888;28;20499;-90
2022/10/29 06:28:13;;;;;;;0.60;0.60;;;;;;;20.39;53.54;99072.69;5063609;28;20051;-90
2022/10/29 06:30:39;;;;;;;0.77;0.70;;;;;;;20.40;53.18;99063.47;5049980;28;20120;-90
2022/10/29 06:33:05;;;;;;;0.50;0.50;;;;;;;20.39;53.32;99059.13;5034538;28;20021;-90
2022/10/29 06:35:30;;;;;;;0.65;0.50;;;;;;;20.39;53.23;99051.00;5049945;28;20103;-90
2022/10/29 06:37:56;;;;;;;0.50;0.50;;;;;;;20.40;53.52;99051.78;5069665;28;20103;-90
2022/10/29 06:40:22;;;;;;;0.60;0.60;;;;;;;20.39;53.52;99040.13;5063494;28;20127;-90
2022/10/29 06:42:47;;;;;;;0.57;0.57;;;;;;;20.38;53.20;99043.94;5069723;28;20507;-90
2022/10/29 06:45:13;;;;;;;0.43;0.43;;;;;;;20.41;53.35;99043.38;5065889;28;20027;-90
2022/10/29 06:47:43;;;;;;;0.80;0.50;;;;;;;20.40;53.31;99027.38;5049612;28;20107;-90
2022/10/29 06:50:09;;;;;;;0.52;0.52;;;;;;;20.40;53.55;99024.66;5069441;28;20028;-90
2022/10/29 06:52:34;;;;;;;0.60;0.60;;;;;;;20.39;53.16;99013.00;5044165;28;20090;-90
2022/10/29 06:55:01;;;;;;;0.70;0.70;;;;;;;20.37;53.13;98998.09;5051268;28;20021;-90
2022/10/29 06:57:27;;;;;;;0.60;0.60;;;;;;;20.37;53.52;99003.53;5030807;28;20515;-89
2022/10/29 06:59:53;;;;;;;0.60;0.60;;;;;;;20.37;53.37;98993.50;5049612;28;20481;-90
2022/10/29 07:02:19;;;;;;;0.65;0.65;;;;;;;20.38;53.31;98997.81;5050539;28;20025;-90
2022/10/29 07:04:44;;;;;;;0.77;0.60;;;;;;;20.39;53.27;98985.06;5043882;28;20028;-90
2022/10/29 07:07:10;;;;;;;0.50;0.50;;;;;;;20.39;53.54;98980.44;5069584;28;20028;-90
2022/10/29 07:09:35;;;;;;;0.60;0.60;;;;;;;20.35;53.54;98968.56;5064141;28;20034;-90
2022/10/29 07:12:01;;;;;;;0.50;0.50;;;;;;;20.33;53.15;98951.75;5067424;28;20062;-89
2022/10/29 07:14:27;;;;;;;0.60;0.60;;;;;;;20.39;53.40;98958.75;5069216;28;20041;-90
2022/10/29 07:16:52;;;;;;;1.23;0.60;;;;;;;20.38;53.47;98953.59;5062259;28;20048;-89
2022/10/29 07:19:18;;;;;;;2.13;0.77;;;;;;;20.40;53.46;98954.13;5049805;28;20138;-90
2022/10/29 07:21:43;;;;;;;0.60;0.60;;;;;;;20.39;53.37;98942.47;5066418;28;20074;-90
2022/10/29 07:24:09;;;;;;;0.65;0.60;;;;;;;20.40;53.34;98938.66;5067764;28;20096;-90
2022/10/29 07:26:35;;;;;;;0.60;0.60;;;;;;;20.36;53.39;98932.19;5068446;28;20028;-90
2022/10/29 07:29:01;;;;;;;0.60;0.60;;;;;;;20.37;53.50;98922.13;5060499;28;20040;-89
2022/10/29 07:31:28;;;;;;;0.50;0.50;;;;;;;20.39;53.52;98909.91;5068523;28;20487;-90
2022/10/29 07:33:54;;;;;;;0.70;0.70;;;;;;;20.39;53.13;98911.81;5032103;28;20016;-89
2022/10/29 07:36:19;;;;;;;0.60;0.60;;;;;;;20.37;53.36;98905.84;5068525;28;20026;-90
2022/10/29 07:38:45;;;;;;;0.70;0.70;;;;;;;20.38;53.56;98896.63;5067188;28;20284;-89
2022/10/29 07:41:11;;;;;;;0.55;0.55;;;;;;;20.40;53.46;98895.25;5065277;28;20051;-89
2022/10/29 07:43:37;;;;;;;0.50;0.50;;;;;;;20.38;53.13;98886.56;5068513;28;20069;-90
2022/10/29 07:46:02;;;;;;;0.50;0.50;;;;;;;20.39;53.32;98877.34;5045421;28;20024;-90
2022/10/29 07:48:28;;;;;;;0.50;0.50;;;;;;;20.32;53.44;98862.53;5067030;28;20514;-90
2022/10/29 07:50:57;;;;;;;1.42;0.47;;;;;;;20.37;53.13;98859.72;5064885;28;20187;-90
2022/10/29 07:53:22;;;;;;;0.60;0.60;;;;;;;20.37;53.24;98857.84;5047221;28;20064;-90
2022/10/29 07:55:52;;;;;;;0.60;0.60;;;;;;;20.36;53.34;98853.50;5068656;28;20082;-90
2022/10/29 07:58:17;;;;;;;0.65;0.60;;;;;;;20.37;53.67;98835.31;5062863;28;20024;-90
2022/10/29 08:00:43;;;;;;;0.60;0.60;;;;;;;20.34;53.43;98833.19;5066615;28;20052;-89
2022/10/29 08:03:20;;;;;;;0.57;0.57;;;;;;;20.36;53.33;98822.84;5062882;28;20115;-90
2022/10/29 08:05:48;;;;;;;0.55;0.55;;;;;;;20.38;53.28;98817.94;5049845;28;20366;-89
2022/10/29 08:08:14;;;;;;;0.60;0.60;;;;;;;20.36;53.37;98815.53;5050600;28;20433;-89
2022/10/29 08:10:39;;;;;;;0.50;0.50;;;;;;;20.39;53.41;98820.38;5063193;28;20036;-90
2022/10/29 08:13:05;;;;;;;0.60;0.60;;;;;;;20.36;53.28;98815.53;5066195;28;20056;-89
2022/10/29 08:15:34;;;;;;;0.50;0.50;;;;;;;20.37;53.34;98811.72;5061187;28;20040;-89
2022/10/29 08:18:00;;;;;;;0.60;0.60;;;;;;;20.37;53.64;98814.44;5066606;28;20108;-90
2022/10/29 08:20:26;;;;;;;0.63;0.60;;;;;;;20.30;53.52;98797.72;5067917;28;20024;-90
2022/10/29 08:22:52;;;;;;;0.85;0.50;;;;;;;20.39;53.38;98806.00;5043312;28;20029;-89
2022/10/29 08:25:18;;;;;;;0.50;0.50;;;;;;;20.40;53.26;98804.88;5067210;28;20469;-90
2022/10/29 08:27:43;;;;;;;0.50;0.50;;;;;;;20.38;53.60;98797.03;5061216;28;20541;-90
2022/10/29 08:30:11;;;;;;;0.55;0.55;;;;;;;20.37;53.65;98795.44;5047297;28;20107;-89
2022/10/29 08:32:44;;;;;;;0.60;0.60;;;;;;;20.41;53.50;98793.75;5047764;28;20040;-90
2022/10/29 08:35:10;;;;;;;0.77;0.60;;;;;;;20.38;53.31;98778.03;5043320;28;20025;-90
2022/10/29 08:37:41;;;;;;;0.38;0.38;;;;;;;20.38;53.68;98777.25;5067311;28;20021;-90
2022/10/29 08:40:08;;;;;;;0.50;0.50;;;;;;;20.39;53.62;98763.41;5059317;28;20521;-90
2022/10/29 08:42:45;;;;;;;0.55;0.55;;;;;;;20.39;53.41;98730.84;5048166;28;20107;-90
2022/10/29 08:45:14;;;;;;;0.30;0.30;;;;;;;20.40;53.31;98713.47;5027381;28;20029;-90
2022/10/29 08:48:15;;;;;;;0.70;0.47;;;;;;;20.40;53.62;98726.22;5045485;28;20024;-89
2022/10/29 08:50:43;;;;;;;0.50;0.50;;;;;;;20.34;53.82;98727.41;5049130;28;20024;-89
2022/10/29 08:53:15;;;;;;;0.60;0.60;;;;;;;20.39;53.53;98719.97;5031504;28;20028;-91
2022/10/29 08:55:40;;;;;;;0.50;0.50;;;;;;;20.39;53.49;98709.13;5049443;28;20075;-90
2022/10/29 08:58:20;;;;;;;0.40;0.40;;;;;;;20.33;53.47;98717.63;5043643;28;20055;-90
2022/10/29 09:00:45;;;;;;;0.40;0.40;;;;;;;20.38;53.72;98715.66;5047221;28;20044;-90
2022/10/29 09:03:11;;;;;;;0.60;0.55;;;;;;;20.40;53.64;98716.19;5064088;28;20059;-91
2022/10/29 09:06:04;;;;;;;0.40;0.40;;;;;;;20.41;53.51;98706.13;5061897;28;20385;-90
2022/10/29 09:08:37;;;;;;;1.83;0.60;;;;;;;20.38;53.53;98691.22;5014359;28;20040;-89
2022/10/29 09:11:30;;;;;;;0.65;0.57;;;;;;;20.40;53.66;98683.63;5042560;28;20064;-89
2022/10/29 09:14:18;;;;;;;1.95;0.50;;;;;;;20.39;53.70;98676.56;5064863;28;20546;-90
2022/10/29 09:17:07;;;;;;;0.40;0.40;;;;;;;20.39;53.64;98679.28;5064308;28;20020;-90
2022/10/29 09:19:46;;;;;;;0.45;0.45;;;;;;;20.39;53.89;98668.44;5048555;28;20395;-90
2022/10/29 09:22:25;;;;;;;0.40;0.40;;;;;;;20.35;53.87;98659.28;5062327;28;20021;-90
2022/10/29 09:25:16;;;;;;;0.40;0.40;;;;;;;20.39;53.75;98665.72;5048142;28;20024;-90
2022/10/29 09:28:22;;;;;;;0.60;0.60;;;;;;;20.40;53.62;98656.50;5045790;28;20036;-89
2022/10/29 09:31:01;;;;;;;0.60;0.60;;;;;;;20.38;54.01;98649.75;4985804;28;20034;-90
2022/10/29 09:33:26;;;;;;;0.40;0.40;;;;;;;20.40;53.90;98645.63;5039568;28;20037;-90
2022/10/29 09:35:54;;;;;;;0.38;0.38;;;;;;;20.40;53.72;98634.78;5043783;28;20058;-90
2022/10/29 09:38:24;;;;;;;0.50;0.50;;;;;;;20.39;53.82;98627.75;5047183;28;20074;-90
2022/10/29 09:40:50;;;;;;;0.40;0.40;;;;;;;20.36;53.90;98616.66;5031939;28;20496;-90
2022/10/29 09:43:37;;;;;;;0.30;0.30;;;;;;;20.40;53.83;98612.25;5047562;28;20025;-90
2022/10/29 09:46:23;;;;;;;0.63;0.55;;;;;;;20.41;53.66;98613.88;5046944;28;20035;-90
2022/10/29 09:49:10;;;;;;;0.50;0.50;;;;;;;20.38;53.79;98609.84;5033338;28;20028;-90
2022/10/29 09:51:51;;;;;;;0.40;0.40;;;;;;;20.40;53.91;98604.13;5062916;28;20036;-90
2022/10/29 09:54:17;;;;;;;0.50;0.50;;;;;;;20.38;53.75;98592.75;5064431;28;20020;-89
2022/10/29 09:56:43;;;;;;;0.57;0.57;;;;;;;20.40;53.91;98602.22;5069421;28;20047;-90
2022/10/29 09:59:38;;;;;;;0.50;0.50;;;;;;;20.40;53.76;98596.81;5061244;28;20511;-90
2022/10/29 10:02:25;;;;;;;0.52;0.52;;;;;;;20.40;53.87;98595.97;5033760;28;20024;-90
2022/10/29 10:04:51;;;;;;;1.75;0.50;;;;;;;20.39;53.79;98587.03;5049723;28;20580;-90
2022/10/29 10:07:20;;;;;;;0.43;0.30;;;;;;;20.41;53.88;98581.31;5050600;28;20373;-91
2022/10/29 10:09:56;;;;;;;0.50;0.50;;;;;;;20.41;53.88;98571.28;5047435;28;20025;-90
2022/10/29 10:12:43;;;;;;;0.30;0.30;;;;;;;20.41;53.97;98582.13;5035001;28;20119;-90
2022/10/29 10:15:15;;;;;;;0.30;0.30;;;;;;;20.42;53.89;98577.50;5049268;28;20492;-90
2022/10/29 10:17:58;;;;;;;0.38;0.38;;;;;;;20.36;53.82;98557.78;5065126;28;20028;-90
2022/10/29 10:20:28;;;;;;;0.43;0.32;;;;;;;20.40;53.99;98553.41;5070184;28;20038;-91
2022/10/29 10:22:53;;;;;;;0.40;0.40;;;;;;;20.40;54.11;98547.97;5068861;28;20028;-92
2022/10/29 10:25:39;;;;;;;0.50;0.40;;;;;;;20.39;53.86;98534.69;5069016;28;20026;-91
2022/10/29 10:28:25;;;;;;;0.30;0.30;;;;;;;20.43;53.75;98543.84;5042915;28;20425;-90
2022/10/29 10:31:03;;;;;;;0.47;0.47;;;;;;;20.43;53.95;98541.94;5046268;28;20398;-90
2022/10/29 10:33:29;;;;;;;0.40;0.40;;;;;;;20.42;54.11;98543.03;5045658;28;20436;-90
2022/10/29 10:35:55;;;;;;;0.40;0.40;;;;;;;20.42;54.02;98528.66;5048913;28;20084;-91
2022/10/29 10:38:24;;;;;;;0.52;0.43;;;;;;;20.42;53.80;98520.50;5032011;28;20095;-90
2022/10/29 10:40:56;;;;;;;0.40;0.40;;;;;;;20.44;54.03;98523.75;5041547;28;20033;-90
2022/10/29 10:43:23;;;;;;;0.32;0.32;;;;;;;20.40;54.04;98510.00;5046206;28;20036;-91
2022/10/29 10:45:59;;;;;;;0.28;0.28;;;;;;;20.43;54.12;98514.00;5028297;28;20021;-91
2022/10/29 10:48:26;;;;;;;1.10;0.70;;;;;;;20.43;54.15;98506.66;5046510;28;20043;-90
2022/10/29 10:51:12;;;;;;;0.28;0.28;;;;;;;20.43;53.89;98501.22;5029975;28;20040;-90
2022/10/29 10:53:39;;;;;;;0.40;0.40;;;;;;;20.44;54.27;98510.19;5044330;28;20028;-90
2022/10/29 10:56:05;;;;;;;0.60;0.40;;;;;;;20.43;54.13;98495.81;5049303;28;20066;-90
2022/10/29 10:58:44;;;;;;;0.40;0.40;;;;;;;20.44;54.11;98489.28;5043073;28;20385;-91
2022/10/29 11:01:18;;;;;;;0.30;0.30;;;;;;;20.43;53.90;98493.09;5045663;28;20024;-90
2022/10/29 11:03:49;;;;;;;1.00;0.50;;;;;;;20.47;54.22;98487.06;5025688;28;20037;-90
2022/10/29 11:06:18;;;;;;;0.40;0.40;;;;;;;20.41;54.27;98479.03;5045590;28;20044;-90
2022/10/29 11:09:19;;;;;;;0.30;0.30;;;;;;;20.48;54.01;98472.41;5047015;28;20033;-90
2022/10/29 11:11:49;;;;;;;0.40;0.40;;;;;;;20.47;54.12;98471.59;5029083;28;20135;-90
2022/10/29 11:14:29;;;;;;;2.40;1.40;;;;;;;20.41;54.35;98465.47;5048028;28;20021;-89
2022/10/29 11:16:55;;;;;;;0.80;0.80;;;;;;;20.43;54.26;98468.66;5041587;28;20699;-90
2022/10/29 11:19:36;;;;;;;0.60;0.60;;;;;;;20.49;54.13;98468.56;5044787;28;20032;-90
2022/10/29 11:22:20;;;;;;;0.73;0.70;;;;;;;20.48;54.08;98464.28;5043344;28;20032;-90
2022/10/29 11:25:07;;;;;;;1.10;0.80;;;;;;;20.45;54.37;98457.53;5047088;28;20033;-90
2022/10/29 11:27:38;;;;;;;0.70;0.70;;;;;;;20.47;54.46;98459.94;5050317;28;20051;-91
2022/10/29 11:30:13;;;;;;;0.95;0.60;;;;;;;20.46;54.34;98445.59;5063758;28;20118;-89
2022/10/29 11:33:00;;;;;;;0.63;0.63;;;;;;;20.50;54.17;98443.06;5047846;28;20032;-90
2022/10/29 11:35:59;;;;;;;0.70;0.60;;;;;;;20.45;54.29;98439.34;5064895;28;20101;-91
2022/10/29 11:38:31;;;;;;;0.43;0.40;;;;;;;20.48;54.46;98440.66;5049702;28;20060;-90
2022/10/29 11:41:45;;;;;;;0.80;0.63;;;;;;;20.50;54.26;98433.00;5064012;28;20036;-90
2022/10/29 11:44:14;;;;;;;1.88;0.70;;;;;;;20.45;54.22;98425.78;5016424;28;20038;-90
2022/10/29 11:47:24;;;;;;;0.93;0.60;;;;;;;20.48;54.54;98418.16;5046237;28;20024;-90
2022/10/29 11:49:56;;;;;;;0.80;0.60;;;;;;;20.50;54.43;98405.06;4982840;28;20516;-91